createdAt,value
2022-08-03T00:04:34.189Z,78.00
2022-08-03T00:09:38.102Z,78.15
2022-08-03T00:14:42.374Z,78.16
2022-08-03T00:19:46.300Z,78.48
2022-08-03T00:24:49.981Z,78.27
2022-08-03T00:30:00.002Z,78.76
2022-08-03T00:35:09.170Z,78.86
2022-08-03T00:40:16.561Z,78.83
2022-08-03T00:45:23.083Z,78.95
2022-08-03T00:50:29.179Z,78.72
2022-08-03T00:55:38.816Z,78.66
2022-08-03T01:00:42.513Z,78.75
2022-08-03T01:05:53.270Z,79.11
2022-08-03T01:11:06.482Z,79.14
2022-08-03T01:16:16.883Z,79.22
2022-08-03T01:21:49.809Z,78.90
2022-08-03T01:27:03.398Z,79.19
2022-08-03T01:32:53.428Z,79.23
2022-08-03T01:37:48.158Z,79.26
2022-08-03T01:43:01.357Z,78.95
2022-08-03T01:48:07.533Z,79.04
2022-08-03T01:53:15.710Z,79.04
2022-08-03T01:58:21.305Z,79.46
2022-08-03T02:03:25.527Z,78.88
2022-08-03T02:08:31.530Z,79.26
2022-08-03T02:13:35.908Z,79.45
2022-08-03T02:18:41.456Z,79.32
2022-08-03T02:23:44.904Z,79.28
2022-08-03T02:28:52.351Z,79.35
2022-08-03T02:34:09.929Z,79.28
2022-08-03T02:39:16.861Z,79.74
2022-08-03T02:44:26.642Z,79.41
2022-08-03T02:49:41.396Z,80.00
2022-08-03T02:54:59.328Z,79.78
2022-08-03T03:00:06.002Z,80.02
2022-08-03T03:05:56.300Z,79.80
2022-08-03T03:10:36.698Z,80.17
2022-08-03T03:15:42.354Z,80.05
2022-08-03T03:20:46.843Z,80.05
2022-08-03T03:25:51.516Z,80.27
2022-08-03T03:30:55.106Z,79.89
2022-08-03T03:35:59.327Z,79.58
2022-08-03T03:41:03.531Z,79.66
2022-08-03T03:46:07.656Z,79.63
2022-08-03T03:51:11.701Z,79.43
2022-08-03T03:56:15.757Z,79.37
2022-08-03T04:01:20.111Z,79.43
2022-08-03T04:06:24.092Z,79.42
2022-08-03T04:11:36.861Z,79.25
2022-08-03T04:16:43.946Z,78.88
2022-08-03T04:21:53.528Z,78.71
2022-08-03T04:27:07.531Z,78.47
2022-08-03T04:32:12.325Z,78.29
2022-08-03T04:37:24.894Z,78.08
2022-08-03T04:42:31.609Z,77.75
2022-08-03T04:47:35.913Z,78.23
2022-08-03T04:52:40.030Z,77.67
2022-08-03T04:57:43.656Z,77.67
2022-08-03T05:02:47.546Z,77.36
2022-08-03T05:07:51.602Z,76.95
2022-08-03T05:12:56.461Z,75.80
2022-08-03T05:18:00.333Z,75.03
2022-08-03T05:23:03.761Z,74.42
2022-08-03T05:28:07.512Z,74.02
2022-08-03T05:33:11.969Z,73.74
2022-08-03T05:38:23.904Z,72.82
2022-08-03T05:43:32.098Z,72.04
2022-08-03T05:48:36.773Z,70.47
2022-08-03T05:53:43.523Z,69.48
2022-08-03T05:58:47.998Z,69.05
2022-08-03T06:03:52.317Z,69.04
2022-08-03T06:08:55.881Z,68.79
2022-08-03T06:13:59.189Z,68.19
2022-08-03T06:19:03.203Z,67.62
2022-08-03T06:24:07.330Z,61.64
2022-08-03T06:29:11.554Z,53.88
2022-08-03T06:34:33.480Z,51.47
2022-08-03T06:39:39.201Z,51.96
2022-08-03T06:44:42.900Z,49.74
2022-08-03T06:50:12.564Z,46.65
2022-08-03T06:55:13.564Z,46.03
2022-08-03T07:00:17.423Z,47.19
2022-08-03T07:05:21.435Z,49.27
2022-08-03T07:10:33.463Z,51.39
2022-08-03T07:15:55.222Z,51.79
2022-08-03T07:21:00.141Z,51.17
2022-08-03T07:26:03.904Z,49.92
2022-08-03T07:31:07.344Z,49.16
2022-08-03T07:36:11.408Z,49.15
2022-08-03T07:41:15.087Z,49.42
2022-08-03T07:46:18.844Z,49.28
2022-08-03T07:51:22.568Z,50.59
2022-08-03T07:56:26.167Z,51.04
2022-08-03T08:01:30.359Z,51.87
2022-08-03T08:06:33.873Z,52.49
2022-08-03T08:11:40.130Z,52.34
2022-08-03T08:16:43.799Z,51.95
2022-08-03T08:21:53.969Z,52.09
2022-08-03T08:27:06.724Z,52.06
2022-08-03T08:32:10.719Z,52.23
2022-08-03T08:37:14.311Z,52.01
2022-08-03T08:42:18.266Z,52.22
2022-08-03T08:47:26.077Z,52.20
2022-08-03T08:52:31.860Z,52.15
2022-08-03T08:57:48.781Z,52.03
2022-08-03T09:02:52.454Z,52.03
2022-08-03T09:07:56.221Z,51.83
2022-08-03T09:12:59.779Z,51.86
2022-08-03T09:18:04.974Z,51.57
2022-08-03T09:23:59.015Z,51.86
2022-08-03T09:28:56.556Z,51.82
2022-08-03T09:34:02.384Z,52.12
2022-08-03T09:39:17.052Z,52.41
2022-08-03T09:44:35.229Z,52.48
2022-08-03T09:49:41.052Z,52.79
2022-08-03T09:54:52.379Z,52.77
2022-08-03T10:00:08.484Z,52.85
2022-08-03T10:05:32.936Z,52.83
2022-08-03T10:10:43.852Z,52.92
2022-08-03T10:16:21.866Z,53.09
2022-08-03T10:21:17.819Z,53.05
2022-08-03T10:26:25.602Z,53.10
2022-08-03T10:31:38.845Z,53.35
2022-08-03T10:37:00.364Z,53.30
2022-08-03T10:42:14.636Z,53.08
2022-08-03T10:47:19.127Z,53.35
2022-08-03T10:52:33.635Z,53.27
2022-08-03T10:57:49.740Z,53.34
2022-08-03T11:03:12.768Z,53.83
2022-08-03T11:08:32.377Z,54.00
2022-08-03T11:13:35.749Z,53.73
2022-08-03T11:19:05.736Z,54.43
2022-08-03T11:24:09.396Z,54.53
2022-08-03T11:29:31.801Z,54.33
2022-08-03T11:35:08.975Z,54.93
2022-08-03T11:40:36.352Z,55.07
2022-08-03T11:45:59.519Z,54.94
2022-08-03T11:51:07.835Z,54.79
2022-08-03T11:56:13.072Z,55.35
2022-08-03T12:01:21.281Z,55.47
2022-08-03T12:06:27.103Z,55.86
2022-08-03T12:11:30.593Z,55.55
2022-08-03T12:16:34.230Z,55.60
2022-08-03T12:21:57.271Z,56.03
2022-08-03T12:27:01.255Z,56.59
2022-08-03T12:32:05.494Z,56.20
2022-08-03T12:37:22.203Z,56.82
2022-08-03T12:42:37.141Z,56.73
2022-08-03T12:48:00.883Z,57.26
2022-08-03T12:53:10.139Z,57.61
2022-08-03T12:58:32.920Z,57.27
2022-08-03T13:03:42.994Z,57.57
2022-08-03T13:08:48.045Z,57.26
2022-08-03T13:13:52.776Z,57.59
2022-08-03T13:18:56.228Z,58.01
2022-08-03T13:23:59.918Z,57.88
2022-08-03T13:29:03.520Z,57.81
2022-08-03T13:34:07.622Z,58.09
2022-08-03T13:39:11.031Z,57.96
2022-08-03T13:44:29.269Z,58.11
2022-08-03T13:49:33.186Z,58.57
2022-08-03T13:54:36.600Z,58.50
2022-08-03T13:59:40.050Z,58.84
2022-08-03T14:04:44.356Z,58.51
2022-08-03T14:09:48.234Z,59.13
2022-08-03T14:14:51.883Z,59.19
2022-08-03T14:19:55.413Z,59.53
2022-08-03T14:25:01.985Z,59.48
2022-08-03T14:30:08.062Z,60.07
2022-08-03T14:35:11.489Z,59.78
2022-08-03T14:40:15.048Z,59.92
2022-08-03T14:45:20.397Z,60.50
2022-08-03T14:50:38.081Z,60.74
2022-08-03T14:55:50.569Z,60.64
2022-08-03T15:00:55.973Z,60.62
2022-08-03T15:05:59.612Z,61.31
2022-08-03T15:11:03.348Z,61.38
2022-08-03T15:16:08.588Z,61.41
2022-08-03T15:21:16.576Z,61.50
2022-08-03T15:26:41.205Z,62.07
2022-08-03T15:31:45.130Z,62.24
2022-08-03T15:36:48.653Z,62.53
2022-08-03T15:41:52.482Z,62.90
2022-08-03T15:46:55.819Z,63.10
2022-08-03T15:51:59.737Z,63.18
2022-08-03T15:57:03.495Z,63.38
2022-08-03T16:02:07.086Z,63.62
2022-08-03T16:07:12.832Z,64.19
2022-08-03T16:12:23.002Z,64.72
2022-08-03T16:17:26.637Z,64.92
2022-08-03T16:22:30.624Z,64.95
2022-08-03T16:28:00.245Z,65.37
2022-08-03T16:33:01.345Z,65.64
2022-08-03T16:38:09.982Z,65.89
2022-08-03T16:43:18.502Z,66.21
2022-08-03T16:48:22.816Z,66.57
2022-08-03T16:54:02.606Z,66.85
2022-08-03T16:58:51.344Z,67.19
2022-08-03T17:04:02.986Z,67.27
2022-08-03T17:09:14.157Z,67.95
2022-08-03T17:14:21.993Z,68.03
2022-08-03T17:19:26.528Z,68.36
2022-08-03T17:24:41.196Z,68.60
2022-08-03T17:29:53.205Z,68.60
2022-08-03T17:34:57.038Z,69.05
2022-08-03T17:40:03.997Z,69.37
2022-08-03T17:45:17.913Z,69.36
2022-08-03T17:50:24.297Z,69.81
2022-08-03T17:55:56.725Z,69.88
2022-08-03T18:01:00.071Z,70.37
2022-08-03T18:06:11.022Z,70.27
2022-08-03T18:11:18.426Z,70.65
2022-08-03T18:16:37.737Z,70.49
2022-08-03T18:22:03.326Z,71.04
2022-08-03T18:27:08.669Z,70.91
2022-08-03T18:32:16.944Z,71.05
2022-08-03T18:37:25.225Z,71.30
2022-08-03T18:42:32.296Z,71.67
2022-08-03T18:47:52.411Z,71.47
2022-08-03T18:53:16.584Z,71.75
2022-08-03T18:58:46.602Z,71.78
2022-08-03T19:03:57.965Z,72.03
2022-08-03T19:09:07.017Z,72.34
2022-08-03T19:14:21.877Z,72.59
2022-08-03T19:19:43.333Z,73.12
2022-08-03T19:24:49.249Z,72.78
2022-08-03T19:29:58.945Z,73.40
2022-08-03T19:35:13.271Z,73.15
2022-08-03T19:40:22.653Z,73.44
2022-08-03T19:46:04.950Z,73.90
2022-08-03T19:51:12.243Z,73.75
2022-08-03T19:56:22.760Z,73.93
2022-08-03T20:01:28.285Z,74.46
2022-08-03T20:06:32.166Z,74.18
2022-08-03T20:11:44.997Z,74.82
2022-08-03T20:16:49.362Z,74.65
2022-08-03T20:21:54.704Z,74.84
2022-08-03T20:27:00.879Z,74.80
2022-08-03T20:32:04.823Z,74.95
2022-08-03T20:37:09.472Z,75.50
2022-08-03T20:42:21.496Z,75.07
2022-08-03T20:47:28.409Z,75.53
2022-08-03T20:52:34.593Z,75.62
2022-08-03T20:57:49.013Z,75.68
2022-08-03T21:02:53.335Z,75.87
2022-08-03T21:08:06.877Z,75.61
2022-08-03T21:13:18.530Z,75.93
2022-08-03T21:18:25.650Z,75.93
2022-08-03T21:23:40.120Z,76.17
2022-08-03T21:28:55.075Z,76.37
2022-08-03T21:34:05.306Z,76.08
2022-08-03T21:39:11.231Z,76.25
2022-08-03T21:44:17.372Z,76.42
2022-08-03T21:50:04.434Z,76.78
2022-08-03T21:55:03.178Z,76.80
2022-08-03T22:00:13.033Z,76.72
2022-08-03T22:05:28.162Z,77.02
2022-08-03T22:10:45.097Z,77.35
2022-08-03T22:15:48.839Z,77.08
2022-08-03T22:20:53.512Z,77.60
2022-08-03T22:25:58.875Z,77.62
2022-08-03T22:31:37.628Z,77.78
2022-08-03T22:36:27.022Z,77.78
2022-08-03T22:41:31.666Z,77.83
2022-08-03T22:46:38.343Z,77.88
2022-08-03T22:51:43.465Z,77.79
2022-08-03T22:56:47.409Z,78.08
2022-08-03T23:01:55.810Z,78.07
2022-08-03T23:07:03.766Z,78.07
2022-08-03T23:12:07.916Z,77.94
2022-08-03T23:17:14.468Z,78.33
2022-08-03T23:22:30.388Z,77.72
2022-08-03T23:27:35.103Z,78.21
2022-08-03T23:32:41.726Z,78.09
2022-08-03T23:38:04.217Z,78.67
2022-08-03T23:43:13.413Z,78.25
2022-08-03T23:48:23.141Z,78.70
2022-08-03T23:53:40.929Z,78.57
2022-08-03T23:59:06.083Z,78.85
